Time;durP1;ratioP1;P1;durP2;ratioP2;P2;SDS_P1;SDS_P2;PMS_P1;PMS_P2;Temp;Humidity;BMP_temperature;BMP_pressure;BME280_temperature;BME280_humidity;BME280_pressure;Samples;Min_cycle;Max_cycle;Signal;HPM_P1;HPM_P2
2023/09/12 00:02:05;;;;;;;18.45;7.15;;;17.40;99.90;;;;;;4993751;28;20037;-84
2023/09/12 00:04:31;;;;;;;16.00;6.93;;;17.40;99.90;;;;;;5027350;28;20040;-84
2023/09/12 00:06:56;;;;;;;17.92;7.53;;;17.30;99.90;;;;;;5009344;28;20037;-84
2023/09/12 00:09:22;;;;;;;21.88;7.15;;;17.30;99.90;;;;;;4995196;28;20033;-84
2023/09/12 00:11:48;;;;;;;35.30;8.18;;;17.20;99.90;;;;;;5003148;28;20124;-85
2023/09/12 00:14:18;;;;;;;23.80;7.47;;;17.10;99.90;;;;;;5011162;28;20405;-85
2023/09/12 00:16:51;;;;;;;17.42;7.15;;;17.00;99.90;;;;;;5027681;28;20435;-84
2023/09/12 00:19:16;;;;;;;15.27;7.10;;;16.90;99.90;;;;;;5026976;28;20099;-85
2023/09/12 00:21:42;;;;;;;16.35;7.07;;;16.80;99.90;;;;;;5001445;28;20457;-85
2023/09/12 00:24:08;;;;;;;25.35;7.88;;;16.70;99.90;;;;;;4998372;28;20027;-85
2023/09/12 00:26:33;;;;;;;18.02;7.53;;;16.70;99.90;;;;;;4995623;28;20091;-84
2023/09/12 00:28:59;;;;;;;15.07;7.80;;;16.70;99.90;;;;;;5009393;28;20061;-84
2023/09/12 00:32:02;;;;;;;21.95;7.28;;;16.70;99.90;;;;;;4996045;28;20018;-85
2023/09/12 00:34:28;;;;;;;25.52;8.07;;;16.70;99.90;;;;;;5021260;28;20030;-84
2023/09/12 00:36:54;;;;;;;14.00;7.50;;;16.60;99.90;;;;;;5009844;28;20646;-85
2023/09/12 00:39:20;;;;;;;17.95;6.95;;;16.60;99.90;;;;;;4995288;28;20030;-84
2023/09/12 00:41:46;;;;;;;17.55;6.85;;;16.60;99.90;;;;;;5007433;28;20026;-85
2023/09/12 00:44:11;;;;;;;23.05;7.95;;;16.40;99.90;;;;;;5014127;28;20025;-84
2023/09/12 00:46:38;;;;;;;19.95;7.63;;;16.30;99.90;;;;;;5030720;28;20497;-84
2023/09/12 00:49:07;;;;;;;24.38;7.78;;;16.30;99.90;;;;;;5014164;28;20121;-85
2023/09/12 00:51:34;;;;;;;22.65;8.13;;;16.20;99.90;;;;;;5031672;28;20105;-84
2023/09/12 00:54:01;;;;;;;27.45;8.23;;;16.10;99.90;;;;;;4992636;28;20034;-84
2023/09/12 00:57:10;;;;;;;14.75;8.07;;;16.10;99.90;;;;;;5024076;28;20025;-85
2023/09/12 00:59:36;;;;;;;25.77;8.07;;;16.10;99.90;;;;;;5030597;28;20046;-84
2023/09/12 01:02:02;;;;;;;18.40;7.60;;;16.10;99.90;;;;;;4998300;28;20037;-84
2023/09/12 01:04:29;;;;;;;19.80;8.77;;;16.10;99.90;;;;;;5019443;28;20030;-85
2023/09/12 01:06:54;;;;;;;15.48;7.53;;;16.10;99.90;;;;;;4999679;28;20113;-84
2023/09/12 01:09:20;;;;;;;14.80;7.90;;;16.10;99.90;;;;;;4997793;28;20160;-84
2023/09/12 01:11:46;;;;;;;17.92;9.35;;;16.00;99.90;;;;;;5001477;28;20185;-84
2023/09/12 01:14:12;;;;;;;14.50;8.90;;;16.00;99.90;;;;;;5010700;28;20485;-85
2023/09/12 01:16:38;;;;;;;13.57;8.20;;;16.00;99.90;;;;;;5002403;28;20054;-84
2023/09/12 01:19:06;;;;;;;12.68;7.38;;;16.00;99.90;;;;;;5012098;28;20022;-84
2023/09/12 01:22:02;;;;;;;16.73;8.13;;;15.90;99.90;;;;;;4996188;28;20074;-84
2023/09/12 01:25:06;;;;;;;17.80;7.85;;;15.90;99.90;;;;;;5000854;28;20539;-84
2023/09/12 01:27:39;;;;;;;17.00;7.95;;;15.80;99.90;;;;;;5024518;28;20355;-84
2023/09/12 01:30:07;;;;;;;13.82;8.05;;;15.80;99.90;;;;;;5012291;28;20029;-85
2023/09/12 01:32:34;;;;;;;14.32;8.30;;;15.70;99.90;;;;;;5000347;28;20034;-84
2023/09/12 01:35:00;;;;;;;16.35;7.18;;;15.60;99.90;;;;;;5010189;28;20085;-85
2023/09/12 01:37:26;;;;;;;12.40;7.70;;;15.60;99.90;;;;;;4997506;28;20026;-85
2023/09/12 01:39:52;;;;;;;16.48;8.88;;;15.50;99.90;;;;;;4997562;28;20076;-85
2023/09/12 01:42:21;;;;;;;15.88;8.10;;;15.50;99.90;;;;;;4994493;28;20696;-84
2023/09/12 01:44:51;;;;;;;16.75;8.50;;;15.40;99.90;;;;;;5003123;28;20756;-85
2023/09/12 01:47:17;;;;;;;15.70;8.27;;;15.20;99.90;;;;;;5012684;28;20022;-85
2023/09/12 01:49:47;;;;;;;16.45;8.43;;;15.20;99.90;;;;;;5030460;28;20057;-86
2023/09/12 01:52:14;;;;;;;15.02;8.70;;;15.10;99.90;;;;;;5012438;28;20056;-85
2023/09/12 01:54:41;;;;;;;21.30;9.52;;;15.00;99.90;;;;;;5013135;28;20036;-84
2023/09/12 01:57:08;;;;;;;27.73;8.98;;;15.00;99.90;;;;;;5012652;28;20037;-84
2023/09/12 01:59:34;;;;;;;23.45;10.18;;;15.00;99.90;;;;;;4999452;28;20034;-84
2023/09/12 02:02:00;;;;;;;14.07;8.80;;;15.00;99.90;;;;;;5004109;28;20031;-84
2023/09/12 02:04:25;;;;;;;17.33;9.65;;;14.90;99.90;;;;;;5013212;28;20160;-85
2023/09/12 02:06:51;;;;;;;15.82;9.57;;;14.90;99.90;;;;;;5012342;28;20049;-85
2023/09/12 02:09:17;;;;;;;17.50;8.95;;;14.90;99.90;;;;;;5020618;28;20030;-85
2023/09/12 02:11:42;;;;;;;18.50;9.55;;;15.00;99.90;;;;;;4996328;28;20088;-84
2023/09/12 02:14:08;;;;;;;13.65;8.75;;;15.00;99.90;;;;;;5010458;28;20112;-84
2023/09/12 02:16:37;;;;;;;14.93;8.60;;;15.00;99.90;;;;;;5000695;28;20425;-84
2023/09/12 02:19:03;;;;;;;20.25;9.50;;;15.00;99.90;;;;;;5026951;28;20042;-85
2023/09/12 02:21:50;;;;;;;14.88;8.63;;;15.00;99.90;;;;;;4995943;28;20485;-84
2023/09/12 02:24:17;;;;;;;16.85;9.05;;;14.90;99.90;;;;;;5015888;28;20504;-84
2023/09/12 02:26:44;;;;;;;21.83;8.55;;;14.90;99.90;;;;;;4997178;28;20028;-84
2023/09/12 02:29:09;;;;;;;21.90;10.07;;;14.90;99.90;;;;;;5010003;28;20034;-85
2023/09/12 02:31:35;;;;;;;20.30;8.95;;;14.90;99.90;;;;;;4996066;28;20023;-84
2023/09/12 02:34:01;;;;;;;20.55;8.65;;;15.00;99.90;;;;;;5013233;28;20041;-84
2023/09/12 02:36:28;;;;;;;22.52;8.98;;;15.00;99.90;;;;;;5005987;28;20466;-84
2023/09/12 02:38:54;;;;;;;21.08;8.88;;;15.10;99.90;;;;;;5019009;28;20628;-82
2023/09/12 02:41:19;;;;;;;14.90;8.48;;;15.10;99.90;;;;;;5002283;28;20034;-84
2023/09/12 02:43:45;;;;;;;24.38;8.25;;;15.10;99.90;;;;;;5023311;28;20034;-82
2023/09/12 02:46:11;;;;;;;22.08;8.77;;;15.10;99.90;;;;;;5022315;28;20042;-84
2023/09/12 02:48:36;;;;;;;13.45;8.23;;;15.10;99.90;;;;;;4996991;28;20017;-84
2023/09/12 02:51:02;;;;;;;21.65;9.30;;;15.10;99.90;;;;;;5012531;28;20462;-84
2023/09/12 02:53:28;;;;;;;19.67;9.07;;;15.10;99.90;;;;;;4999870;28;20029;-84
2023/09/12 02:55:54;;;;;;;19.75;9.57;;;15.20;99.90;;;;;;4997730;28;20384;-84
2023/09/12 02:58:20;;;;;;;13.95;8.13;;;15.20;99.90;;;;;;4999602;28;20041;-84
2023/09/12 03:00:49;;;;;;;18.92;8.77;;;15.20;99.90;;;;;;4994262;28;20034;-84
2023/09/12 03:03:16;;;;;;;19.80;8.05;;;15.20;99.90;;;;;;5026302;28;20026;-84
2023/09/12 03:05:42;;;;;;;15.38;8.40;;;15.20;99.90;;;;;;4993586;28;20092;-85
2023/09/12 03:08:08;;;;;;;19.23;7.93;;;15.20;99.90;;;;;;5023343;28;20019;-84
2023/09/12 03:10:34;;;;;;;24.25;9.50;;;15.10;99.90;;;;;;5014561;28;20118;-85
2023/09/12 03:13:00;;;;;;;20.08;9.07;;;15.10;99.90;;;;;;5023181;28;20504;-85
2023/09/12 03:15:25;;;;;;;21.38;10.38;;;15.00;99.90;;;;;;5015125;28;20737;-84
2023/09/12 03:17:51;;;;;;;21.08;8.90;;;15.00;99.90;;;;;;5012420;28;20033;-84
2023/09/12 03:20:17;;;;;;;22.13;8.80;;;14.90;99.90;;;;;;5009335;28;20022;-85
2023/09/12 03:22:43;;;;;;;23.83;9.60;;;15.00;99.90;;;;;;5003123;28;20363;-84
2023/09/12 03:25:09;;;;;;;23.25;8.40;;;14.90;99.90;;;;;;5009760;28;20022;-85
2023/09/12 03:27:35;;;;;;;17.08;8.70;;;14.80;99.90;;;;;;4987442;28;20060;-85
2023/09/12 03:30:00;;;;;;;16.75;8.35;;;14.80;99.90;;;;;;4994662;28;20025;-84
2023/09/12 03:32:53;;;;;;;18.83;9.27;;;14.80;99.90;;;;;;5003502;28;20050;-85
2023/09/12 03:35:18;;;;;;;26.83;8.85;;;14.70;99.90;;;;;;5016305;28;20492;-84
2023/09/12 03:37:44;;;;;;;15.75;7.85;;;14.70;99.90;;;;;;5006532;28;20030;-84
2023/09/12 03:40:11;;;;;;;26.15;9.13;;;14.70;99.90;;;;;;5009124;28;20374;-85
2023/09/12 03:42:37;;;;;;;23.88;9.88;;;14.70;99.90;;;;;;4992952;28;20066;-84
2023/09/12 03:45:03;;;;;;;17.98;8.85;;;14.70;99.90;;;;;;5010779;28;20603;-84
2023/09/12 03:47:28;;;;;;;19.70;9.02;;;14.70;99.90;;;;;;4994619;28;20048;-85
2023/09/12 03:49:54;;;;;;;22.65;9.38;;;14.70;99.90;;;;;;5010723;28;20121;-85
2023/09/12 03:52:20;;;;;;;16.95;8.38;;;14.80;99.90;;;;;;5013535;28;20041;-85
2023/09/12 03:54:45;;;;;;;27.60;9.45;;;14.80;99.90;;;;;;5010195;28;20034;-83
2023/09/12 03:57:11;;;;;;;25.63;8.95;;;14.80;99.90;;;;;;4994211;28;20026;-84
2023/09/12 03:59:37;;;;;;;24.52;9.10;;;14.90;99.90;;;;;;5002530;28;20733;-84
2023/09/12 04:02:03;;;;;;;23.35;8.48;;;15.00;99.90;;;;;;4994536;28;20132;-84
2023/09/12 04:04:29;;;;;;;30.33;9.45;;;15.10;99.90;;;;;;5011182;28;20129;-83
2023/09/12 04:06:55;;;;;;;20.50;8.75;;;15.20;99.90;;;;;;5011022;28;20121;-84
2023/09/12 04:09:21;;;;;;;21.55;8.88;;;15.30;99.90;;;;;;5022963;28;20068;-84
2023/09/12 04:11:46;;;;;;;18.88;8.25;;;15.40;99.90;;;;;;5010830;28;20026;-84
2023/09/12 04:14:14;;;;;;;25.60;8.55;;;15.40;99.90;;;;;;5010148;28;20030;-84
2023/09/12 04:16:39;;;;;;;24.60;9.00;;;15.50;99.90;;;;;;5004255;28;20034;-83
2023/09/12 04:19:05;;;;;;;23.95;8.85;;;15.60;99.90;;;;;;5029810;28;20033;-84
2023/09/12 04:21:31;;;;;;;26.40;8.43;;;15.70;99.90;;;;;;4997052;28;20108;-83
2023/09/12 04:23:57;;;;;;;20.50;8.18;;;15.80;99.90;;;;;;5030629;28;20117;-84
2023/09/12 04:26:23;;;;;;;21.20;8.45;;;15.90;99.90;;;;;;4998323;28;20038;-84
2023/09/12 04:28:49;;;;;;;19.80;7.97;;;16.00;99.90;;;;;;5015500;28;20477;-84
2023/09/12 04:31:14;;;;;;;29.02;8.20;;;16.10;99.90;;;;;;5030731;28;20052;-84
2023/09/12 04:33:40;;;;;;;18.65;8.68;;;16.20;99.90;;;;;;5005942;28;20037;-84
2023/09/12 04:36:06;;;;;;;20.35;8.30;;;16.30;99.90;;;;;;4996526;28;20478;-84
2023/09/12 04:38:32;;;;;;;28.23;9.88;;;16.40;99.90;;;;;;4998557;28;20105;-84
2023/09/12 04:41:04;;;;;;;23.80;8.75;;;16.50;99.90;;;;;;5009488;28;20104;-84
2023/09/12 04:43:33;;;;;;;27.95;9.48;;;16.60;99.90;;;;;;4995531;28;20034;-84
2023/09/12 04:45:59;;;;;;;26.70;8.60;;;16.70;99.90;;;;;;5014206;28;20042;-84
2023/09/12 04:48:25;;;;;;;27.27;8.75;;;16.80;99.90;;;;;;5026137;28;20598;-84
2023/09/12 04:50:50;;;;;;;24.98;8.18;;;16.90;99.90;;;;;;5007628;28;20030;-84
2023/09/12 04:53:25;;;;;;;24.23;8.15;;;17.00;99.90;;;;;;5011500;28;20037;-84
2023/09/12 04:55:54;;;;;;;17.48;7.75;;;17.10;99.90;;;;;;4997196;28;20105;-82
2023/09/12 04:58:20;;;;;;;25.52;8.13;;;17.20;99.90;;;;;;4989709;28;20034;-82
2023/09/12 05:00:46;;;;;;;28.50;7.30;;;17.30;99.90;;;;;;4987436;28;20026;-83
2023/09/12 05:03:11;;;;;;;23.10;7.68;;;17.30;99.90;;;;;;5010085;28;20377;-82
2023/09/12 05:05:37;;;;;;;19.02;8.68;;;17.30;99.90;;;;;;5007869;28;20060;-82
2023/09/12 05:08:04;;;;;;;16.70;7.20;;;17.30;99.90;;;;;;5023058;28;20025;-82
2023/09/12 05:10:30;;;;;;;18.58;7.97;;;17.20;99.90;;;;;;5003764;28;20812;-82
2023/09/12 05:12:56;;;;;;;20.23;7.20;;;17.20;99.90;;;;;;5010022;28;20433;-82
2023/09/12 05:15:21;;;;;;;23.00;8.27;;;17.20;99.90;;;;;;5012240;28;20022;-82
2023/09/12 05:17:47;;;;;;;25.27;8.35;;;17.30;99.90;;;;;;5014101;28;20152;-83
2023/09/12 05:20:13;;;;;;;18.67;8.07;;;17.30;99.90;;;;;;5027117;28;20513;-82
2023/09/12 05:22:39;;;;;;;23.55;7.88;;;17.40;99.90;;;;;;4990512;28;20109;-82
2023/09/12 05:25:05;;;;;;;24.15;8.73;;;17.50;99.90;;;;;;4994286;28;20031;-82
2023/09/12 05:27:31;;;;;;;22.30;7.47;;;17.60;99.90;;;;;;5001045;28;20390;-83
2023/09/12 05:29:57;;;;;;;25.52;7.55;;;17.60;99.90;;;;;;5020728;28;20021;-83
2023/09/12 05:32:22;;;;;;;21.55;8.65;;;17.70;99.90;;;;;;4993820;28;20458;-83
2023/09/12 05:34:49;;;;;;;20.23;7.32;;;17.80;99.90;;;;;;5009716;28;20025;-83
2023/09/12 05:37:16;;;;;;;17.40;7.82;;;17.90;99.90;;;;;;5028577;28;20176;-83
2023/09/12 05:39:42;;;;;;;31.08;8.05;;;17.90;99.90;;;;;;5010184;28;20030;-83
2023/09/12 05:42:08;;;;;;;22.58;7.28;;;17.90;99.90;;;;;;4995885;28;20025;-83
2023/09/12 05:44:34;;;;;;;20.60;8.07;;;18.00;99.90;;;;;;5006630;28;20041;-83
2023/09/12 05:46:59;;;;;;;25.25;7.10;;;18.20;99.90;;;;;;5001429;28;20447;-83
2023/09/12 05:49:25;;;;;;;26.83;7.53;;;18.30;99.90;;;;;;4996371;28;20121;-83
2023/09/12 05:51:51;;;;;;;23.60;8.05;;;18.40;99.90;;;;;;5025352;28;20080;-83
2023/09/12 05:54:17;;;;;;;32.35;7.00;;;18.40;99.90;;;;;;5004982;28;20029;-83
2023/09/12 05:56:42;;;;;;;21.77;6.43;;;18.60;99.90;;;;;;5014223;28;20061;-83
2023/09/12 05:59:08;;;;;;;39.88;8.82;;;18.80;99.90;;;;;;5008700;28;20133;-83
2023/09/12 06:01:34;;;;;;;23.65;7.13;;;18.90;99.90;;;;;;4989567;28;20641;-83
2023/09/12 06:04:00;;;;;;;20.20;7.88;;;18.90;99.90;;;;;;5029202;28;20030;-83
2023/09/12 06:06:25;;;;;;;20.80;6.85;;;19.10;99.90;;;;;;5008118;28;20422;-83
2023/09/12 06:08:53;;;;;;;31.58;6.75;;;19.20;99.90;;;;;;5009874;28;20556;-83
2023/09/12 06:11:19;;;;;;;22.38;7.00;;;19.20;99.90;;;;;;5010086;28;20026;-83
2023/09/12 06:13:45;;;;;;;28.85;7.20;;;19.40;99.90;;;;;;4993450;28;20033;-84
2023/09/12 06:16:10;;;;;;;21.30;6.57;;;19.60;99.90;;;;;;5010761;28;20033;-83
2023/09/12 06:18:36;;;;;;;22.90;6.82;;;19.80;99.90;;;;;;5004981;28;20042;-83
2023/09/12 06:21:08;;;;;;;20.20;7.07;;;20.00;99.90;;;;;;4993220;28;20126;-83
2023/09/12 06:23:34;;;;;;;33.95;7.13;;;20.20;99.90;;;;;;5013011;28;20120;-83
2023/09/12 06:25:59;;;;;;;19.65;6.43;;;20.30;99.90;;;;;;5026481;28;20225;-83
2023/09/12 06:28:26;;;;;;;17.83;6.70;;;20.40;99.90;;;;;;5009680;28;20022;-83
2023/09/12 06:30:52;;;;;;;17.98;6.68;;;20.60;99.90;;;;;;5011427;28;20046;-83
2023/09/12 06:33:18;;;;;;;25.40;6.47;;;20.60;99.90;;;;;;5010281;28;20033;-83
2023/09/12 06:35:47;;;;;;;34.28;7.78;;;20.70;99.90;;;;;;5028317;28;20036;-83
2023/09/12 06:38:13;;;;;;;26.38;6.63;;;20.70;99.90;;;;;;5010130;28;20034;-83
2023/09/12 06:40:38;;;;;;;22.00;6.57;;;20.80;99.90;;;;;;4999421;28;20040;-83
2023/09/12 06:43:04;;;;;;;23.10;6.95;;;20.80;99.90;;;;;;5000072;28;20034;-83
2023/09/12 06:45:32;;;;;;;19.23;6.10;;;20.90;99.90;;;;;;5003814;28;20113;-83
2023/09/12 06:47:58;;;;;;;27.67;6.78;;;20.90;99.90;;;;;;4991247;28;20026;-83
2023/09/12 06:50:24;;;;;;;24.65;7.50;;;21.00;99.90;;;;;;4992631;28;20033;-83
2023/09/12 06:52:49;;;;;;;25.73;6.53;;;21.00;99.90;;;;;;4989662;28;20038;-83
2023/09/12 06:55:15;;;;;;;23.15;6.57;;;21.10;99.90;;;;;;5001276;28;20397;-83
2023/09/12 06:57:42;;;;;;;30.08;7.13;;;21.10;99.90;;;;;;4994512;28;20125;-83
2023/09/12 07:00:08;;;;;;;20.17;6.43;;;21.20;99.90;;;;;;5007146;28;20069;-83
2023/09/12 07:02:35;;;;;;;23.23;6.75;;;21.20;99.90;;;;;;4993258;28;20053;-83
2023/09/12 07:05:01;;;;;;;18.55;6.70;;;21.10;99.90;;;;;;4998830;28;20030;-83
2023/09/12 07:07:27;;;;;;;23.02;7.15;;;21.10;99.90;;;;;;5024882;28;20080;-83
2023/09/12 07:09:52;;;;;;;21.20;7.40;;;21.10;99.90;;;;;;5016687;28;20075;-83
2023/09/12 07:12:18;;;;;;;22.38;6.60;;;21.20;99.90;;;;;;5000421;28;20038;-83
2023/09/12 07:14:44;;;;;;;22.10;7.18;;;21.30;99.90;;;;;;5028639;28;20030;-83
2023/09/12 07:17:10;;;;;;;20.65;6.95;;;21.50;99.90;;;;;;5012356;28;20165;-83
2023/09/12 07:19:36;;;;;;;21.05;7.07;;;21.80;99.90;;;;;;5002610;28;20030;-83
2023/09/12 07:22:02;;;;;;;15.23;6.72;;;22.00;99.90;;;;;;5006047;28;20033;-83
2023/09/12 07:24:27;;;;;;;21.70;7.07;;;22.20;99.90;;;;;;5028437;28;20061;-83
2023/09/12 07:26:53;;;;;;;24.77;8.15;;;22.40;99.90;;;;;;5006732;28;20474;-83
2023/09/12 07:29:19;;;;;;;24.05;8.60;;;22.50;99.90;;;;;;5010661;28;20065;-84
2023/09/12 07:31:45;;;;;;;29.15;8.45;;;22.70;99.90;;;;;;5011960;28;20046;-83
2023/09/12 07:34:11;;;;;;;25.92;7.90;;;22.60;99.90;;;;;;4994586;28;20053;-83
2023/09/12 07:36:38;;;;;;;25.98;8.98;;;22.60;99.90;;;;;;5021648;28;20061;-83
2023/09/12 07:39:04;;;;;;;23.02;8.57;;;22.50;99.90;;;;;;5011608;28;20066;-83
2023/09/12 07:41:30;;;;;;;17.20;8.52;;;22.40;99.90;;;;;;5013668;28;20030;-83
2023/09/12 07:43:55;;;;;;;23.33;8.40;;;22.20;99.90;;;;;;5027938;28;20053;-83
2023/09/12 07:46:21;;;;;;;22.38;8.25;;;22.00;99.90;;;;;;4993941;28;20485;-83
2023/09/12 07:48:47;;;;;;;19.50;8.18;;;21.90;99.90;;;;;;5027379;28;20068;-83
2023/09/12 07:51:17;;;;;;;22.08;8.98;;;21.90;99.90;;;;;;4995664;28;20669;-82
2023/09/12 07:53:43;;;;;;;27.87;8.90;;;21.90;99.90;;;;;;5011682;28;20061;-83
2023/09/12 07:56:10;;;;;;;26.25;8.30;;;21.90;99.90;;;;;;4994466;28;20079;-83
2023/09/12 07:58:36;;;;;;;23.85;8.05;;;21.90;99.90;;;;;;4992495;28;20041;-83
2023/09/12 08:01:09;;;;;;;20.13;8.30;;;21.80;99.90;;;;;;4997366;28;20030;-83
2023/09/12 08:03:38;;;;;;;26.67;8.52;;;21.90;99.90;;;;;;5017571;28;20083;-83
2023/09/12 08:06:04;;;;;;;22.88;9.15;;;21.90;99.90;;;;;;5027576;28;20028;-83
2023/09/12 08:08:30;;;;;;;29.60;9.50;;;22.00;99.90;;;;;;4994427;28;20105;-83
2023/09/12 08:10:57;;;;;;;17.92;8.82;;;22.10;99.90;;;;;;4998307;28;20045;-83
2023/09/12 08:13:26;;;;;;;20.35;8.55;;;22.20;99.90;;;;;;5021940;28;20085;-83
2023/09/12 08:15:51;;;;;;;21.30;9.45;;;22.40;99.90;;;;;;5019735;28;20026;-83
2023/09/12 08:18:17;;;;;;;22.90;8.85;;;22.40;99.90;;;;;;5002261;28;20089;-83
2023/09/12 08:20:43;;;;;;;25.08;9.18;;;22.50;99.90;;;;;;5010764;28;20034;-83
2023/09/12 08:23:09;;;;;;;28.35;9.07;;;22.60;99.90;;;;;;4992280;28;20103;-83
2023/09/12 08:25:35;;;;;;;28.92;9.77;;;22.60;99.90;;;;;;4999550;28;20534;-83
2023/09/12 08:28:01;;;;;;;30.98;10.13;;;22.60;99.90;;;;;;5022193;28;20026;-83
2023/09/12 08:30:29;;;;;;;19.60;8.30;;;22.60;99.90;;;;;;5023855;28;20031;-83
2023/09/12 08:32:55;;;;;;;26.63;9.18;;;22.70;99.90;;;;;;5010012;28;20465;-83
2023/09/12 08:35:21;;;;;;;20.20;8.32;;;22.60;99.90;;;;;;5012135;28;20037;-83
2023/09/12 08:37:47;;;;;;;25.77;8.82;;;22.60;99.90;;;;;;5028208;28;20389;-83
2023/09/12 08:40:14;;;;;;;22.38;8.40;;;22.70;99.90;;;;;;5010654;28;20042;-83
2023/09/12 08:42:41;;;;;;;25.20;8.27;;;22.80;99.90;;;;;;4994147;28;20045;-83
2023/09/12 08:45:12;;;;;;;20.52;8.70;;;23.50;99.90;;;;;;4994504;28;20033;-83
2023/09/12 08:47:40;;;;;;;19.77;8.02;;;25.20;99.90;;;;;;5011031;28;20493;-83
2023/09/12 08:50:10;;;;;;;20.55;8.07;;;26.60;99.90;;;;;;4994795;28;20048;-84
2023/09/12 08:52:35;;;;;;;25.25;8.77;;;28.10;99.90;;;;;;5011173;28;20030;-83
2023/09/12 08:55:01;;;;;;;18.05;7.93;;;29.30;99.90;;;;;;5010781;28;20405;-83
2023/09/12 08:57:27;;;;;;;17.35;7.45;;;30.30;99.90;;;;;;4998410;28;20026;-83
2023/09/12 08:59:54;;;;;;;22.35;8.07;;;31.00;99.90;;;;;;4985810;28;20045;-84
2023/09/12 09:02:21;;;;;;;23.73;7.40;;;31.80;99.90;;;;;;5028932;28;20775;-84
2023/09/12 09:04:49;;;;;;;16.05;7.45;;;32.70;99.90;;;;;;5004820;28;20044;-83
2023/09/12 09:07:17;;;;;;;21.45;8.70;;;33.10;99.90;;;;;;5011972;28;20026;-84
2023/09/12 09:09:44;;;;;;;18.27;7.43;;;33.40;96.50;;;;;;5010722;28;20039;-84
2023/09/12 09:12:10;;;;;;;18.20;7.53;;;33.70;95.30;;;;;;4995892;28;20038;-84
2023/09/12 09:14:36;;;;;;;19.33;7.78;;;33.90;94.90;;;;;;5010230;28;21367;-84
2023/09/12 09:17:02;;;;;;;19.38;7.72;;;33.80;92.90;;;;;;5025284;28;20050;-84
2023/09/12 09:19:42;;;;;;;20.17;6.93;;;33.40;93.90;;;;;;5001913;28;20374;-84
2023/09/12 09:22:08;;;;;;;18.45;7.25;;;33.10;95.40;;;;;;5003529;28;20030;-83
2023/09/12 09:24:39;;;;;;;19.65;8.25;;;32.80;95.70;;;;;;4988547;28;20033;-84
2023/09/12 09:27:05;;;;;;;23.77;7.50;;;32.10;94.70;;;;;;5012323;28;20057;-85
2023/09/12 09:29:33;;;;;;;16.00;7.95;;;31.20;96.60;;;;;;4999381;28;20085;-84
2023/09/12 09:32:05;;;;;;;15.88;7.95;;;30.30;96.90;;;;;;4999865;28;20025;-84
2023/09/12 09:34:31;;;;;;;22.02;8.55;;;30.10;97.80;;;;;;5002312;28;20181;-84
2023/09/12 09:36:58;;;;;;;18.42;8.07;;;29.90;97.80;;;;;;5000503;28;20026;-84
2023/09/12 09:39:26;;;;;;;15.77;8.07;;;29.50;97.90;;;;;;5024157;28;20032;-84
2023/09/12 09:41:57;;;;;;;16.42;8.00;;;29.00;97.90;;;;;;5026176;28;20457;-84
2023/09/12 09:44:26;;;;;;;20.33;8.32;;;28.40;98.40;;;;;;5015100;28;20093;-83
2023/09/12 09:47:03;;;;;;;20.52;8.82;;;28.50;98.40;;;;;;5021406;28;20489;-83
2023/09/12 09:49:31;;;;;;;19.27;8.57;;;28.20;98.60;;;;;;5014489;28;20044;-84
2023/09/12 09:51:58;;;;;;;16.15;8.63;;;28.20;99.60;;;;;;5007214;28;20030;-84
2023/09/12 09:54:25;;;;;;;19.10;7.97;;;28.70;99.30;;;;;;4994397;28;20037;-83
2023/09/12 09:56:56;;;;;;;19.30;8.23;;;28.40;99.00;;;;;;5000323;28;20037;-84
2023/09/12 09:59:22;;;;;;;;;;;28.50;99.50;;;;;;4999386;28;20420;-83
2023/09/12 10:01:50;;;;;;;19.20;8.75;;;28.50;99.10;;;;;;5024899;28;20373;-84
2023/09/12 10:04:17;;;;;;;19.85;10.20;;;28.50;99.90;;;;;;5024192;28;20026;-83
2023/09/12 10:06:45;;;;;;;24.90;8.63;;;28.30;99.60;;;;;;5015944;28;20030;-83
2023/09/12 10:09:13;;;;;;;18.52;8.77;;;28.80;99.20;;;;;;4989550;28;20659;-84
2023/09/12 10:11:40;;;;;;;14.30;8.18;;;28.60;99.60;;;;;;5017589;28;20045;-83
2023/09/12 10:14:07;;;;;;;22.35;8.52;;;28.90;99.60;;;;;;5022304;28;20026;-84
2023/09/12 10:16:44;;;;;;;19.52;9.40;;;29.10;99.10;;;;;;5009812;28;20686;-83
2023/09/12 10:19:10;;;;;;;13.95;8.48;;;29.10;98.60;;;;;;5025232;28;20388;-82
2023/09/12 10:21:40;;;;;;;18.15;8.75;;;29.10;99.30;;;;;;5025876;28;20525;-83
2023/09/12 10:24:08;;;;;;;17.23;8.30;;;29.10;99.10;;;;;;4996953;28;20061;-83
2023/09/12 10:26:34;;;;;;;22.08;8.65;;;29.40;98.90;;;;;;5000113;28;20040;-82
2023/09/12 10:29:03;;;;;;;17.40;7.25;;;30.10;98.70;;;;;;4995321;28;20065;-83
2023/09/12 10:31:31;;;;;;;18.23;8.18;;;30.70;97.30;;;;;;5027857;28;20029;-81
2023/09/12 10:33:59;;;;;;;23.23;8.95;;;30.80;95.60;;;;;;5012117;28;20088;-83
2023/09/12 10:36:26;;;;;;;19.30;8.95;;;31.00;96.30;;;;;;5028546;28;20038;-82
2023/09/12 10:38:53;;;;;;;15.90;7.72;;;31.00;96.40;;;;;;5004986;28;20057;-83
2023/09/12 10:41:21;;;;;;;15.75;8.10;;;30.70;95.90;;;;;;5012632;28;20112;-83
2023/09/12 10:43:51;;;;;;;14.32;8.02;;;30.60;96.10;;;;;;5012769;28;20030;-83
2023/09/12 10:46:17;;;;;;;19.40;8.07;;;30.80;96.20;;;;;;4996119;28;20030;-83
2023/09/12 10:48:43;;;;;;;16.92;7.55;;;30.70;95.70;;;;;;5002519;28;20652;-83
2023/09/12 10:51:10;;;;;;;11.52;8.20;;;30.70;95.90;;;;;;4998173;28;20497;-83
2023/09/12 10:53:36;;;;;;;15.48;7.22;;;30.70;95.20;;;;;;4996295;28;20033;-83
2023/09/12 10:56:15;;;;;;;19.95;8.15;;;30.30;95.50;;;;;;5000282;28;20026;-83
2023/09/12 10:59:06;;;;;;;20.20;7.78;;;30.10;96.00;;;;;;5028396;28;20026;-83
2023/09/12 11:01:36;;;;;;;20.17;8.70;;;29.30;95.80;;;;;;5027376;28;20061;-83
2023/09/12 11:04:33;;;;;;;15.98;8.23;;;29.20;96.80;;;;;;5011923;28;20040;-83
2023/09/12 11:06:58;;;;;;;13.65;7.30;;;29.80;96.20;;;;;;5006842;28;20036;-83
2023/09/12 11:09:44;;;;;;;13.38;8.07;;;30.30;96.00;;;;;;5001154;28;20109;-83
2023/09/12 11:12:35;;;;;;;19.00;8.25;;;31.40;95.60;;;;;;5009271;28;20029;-83
2023/09/12 11:15:06;;;;;;;15.85;7.68;;;32.30;95.20;;;;;;5000521;28;20038;-83
2023/09/12 11:17:43;;;;;;;15.45;7.30;;;32.60;94.60;;;;;;5015510;28;20512;-84
2023/09/12 11:20:13;;;;;;;14.48;8.00;;;33.20;93.30;;;;;;4994515;28;20494;-83
2023/09/12 11:22:40;;;;;;;18.67;7.57;;;32.20;92.70;;;;;;5024020;28;20110;-83
2023/09/12 11:25:25;;;;;;;12.05;7.30;;;31.30;94.50;;;;;;4991357;28;20874;-83
2023/09/12 11:27:50;;;;;;;16.77;7.70;;;31.30;94.70;;;;;;5004862;28;20088;-83
2023/09/12 11:30:30;;;;;;;10.48;7.07;;;31.20;94.80;;;;;;5028327;28;20420;-84
2023/09/12 11:32:57;;;;;;;17.10;7.47;;;31.00;94.30;;;;;;4977759;28;20093;-83
2023/09/12 11:35:25;;;;;;;19.40;7.85;;;30.50;95.60;;;;;;5027594;28;20085;-83
2023/09/12 11:37:56;;;;;;;17.73;7.97;;;30.30;96.60;;;;;;5006240;28;20030;-83
2023/09/12 11:40:23;;;;;;;13.00;8.00;;;30.60;95.40;;;;;;5027317;28;20812;-83
2023/09/12 11:42:50;;;;;;;24.83;7.90;;;30.90;94.30;;;;;;5023368;28;20458;-83
2023/09/12 11:45:19;;;;;;;18.02;7.95;;;31.00;94.90;;;;;;5000043;28;20036;-83
2023/09/12 11:47:46;;;;;;;10.32;7.25;;;31.90;94.20;;;;;;4994688;28;20053;-83
2023/09/12 11:50:30;;;;;;;19.58;7.60;;;32.60;95.20;;;;;;5028296;28;20034;-83
2023/09/12 11:53:12;;;;;;;14.65;8.07;;;33.00;93.50;;;;;;5027953;28;20037;-83
2023/09/12 11:55:43;;;;;;;21.67;7.90;;;32.60;92.60;;;;;;5011517;28;20022;-83
2023/09/12 11:58:10;;;;;;;12.18;7.50;;;32.50;92.00;;;;;;5028089;28;20397;-83
2023/09/12 12:00:37;;;;;;;16.92;7.50;;;32.20;92.00;;;;;;4993077;28;20444;-83
2023/09/12 12:03:04;;;;;;;13.13;6.95;;;32.50;92.20;;;;;;4995302;28;20084;-83
2023/09/12 12:05:29;;;;;;;15.77;7.50;;;32.80;92.60;;;;;;5023057;28;20113;-83
2023/09/12 12:07:55;;;;;;;15.98;7.95;;;32.80;92.50;;;;;;4996839;28;20140;-84
2023/09/12 12:10:24;;;;;;;12.07;7.32;;;33.10;93.50;;;;;;5002868;28;20034;-83
2023/09/12 12:12:53;;;;;;;10.45;7.40;;;33.00;92.90;;;;;;5003638;28;20034;-83
2023/09/12 12:15:28;;;;;;;13.60;7.32;;;32.70;92.10;;;;;;4996674;28;20030;-84
2023/09/12 12:17:57;;;;;;;14.55;8.07;;;32.10;92.20;;;;;;5028039;28;20678;-83
2023/09/12 12:20:23;;;;;;;13.75;8.10;;;31.40;93.60;;;;;;5011113;28;20061;-84
2023/09/12 12:22:51;;;;;;;15.48;8.55;;;30.90;93.30;;;;;;5012119;28;20026;-84
2023/09/12 12:25:17;;;;;;;14.85;9.13;;;30.70;94.10;;;;;;5001708;28;20085;-83
2023/09/12 12:27:43;;;;;;;13.93;8.32;;;30.90;94.20;;;;;;5011279;28;20397;-84
2023/09/12 12:30:13;;;;;;;18.25;8.77;;;30.80;94.40;;;;;;5008144;28;20085;-84
2023/09/12 12:32:43;;;;;;;21.97;8.97;;;30.40;94.30;;;;;;5025789;28;20058;-83
2023/09/12 12:35:17;;;;;;;17.67;8.60;;;30.80;95.30;;;;;;5015910;28;20030;-84
2023/09/12 12:37:44;;;;;;;12.77;8.20;;;30.60;94.30;;;;;;5001705;28;20042;-83
2023/09/12 12:40:12;;;;;;;12.57;8.52;;;30.70;94.90;;;;;;5009065;28;20712;-84
2023/09/12 12:42:41;;;;;;;26.23;9.93;;;30.90;95.10;;;;;;5016615;28;20022;-84